Time;durP1;ratioP1;P1;durP2;ratioP2;P2;SDS_P1;SDS_P2;PMS_P1;PMS_P2;Temp;Humidity;BMP_temperature;BMP_pressure;BME280_temperature;BME280_humidity;BME280_pressure;Samples;Min_cycle;Max_cycle;Signal;HPM_P1;HPM_P2
2021/08/11 00:02:00;;;;;;;2.37;1.40;;;;;;;;;;5030210;28;20441;-85
2021/08/11 00:04:26;;;;;;;2.50;1.50;;;;;;;;;;5040432;28;20456;-84
2021/08/11 00:06:52;;;;;;;1.40;1.27;;;;;;;;;;5046923;28;20437;-85
2021/08/11 00:09:18;;;;;;;1.77;1.67;;;;;;;;;;5043573;28;20414;-85
2021/08/11 00:11:44;;;;;;;2.20;1.60;;;;;;;;;;5047974;28;20440;-85
2021/08/11 00:14:10;;;;;;;1.40;1.30;;;;;;;;;;5044696;28;20429;-85
2021/08/11 00:16:36;;;;;;;1.70;1.50;;;;;;;;;;5046490;28;20178;-85
2021/08/11 00:19:02;;;;;;;3.93;1.60;;;;;;;;;;5044506;28;20476;-85
2021/08/11 00:21:28;;;;;;;1.53;1.43;;;;;;;;;;5046080;28;20455;-85
2021/08/11 00:23:54;;;;;;;1.55;1.45;;;;;;;;;;5048487;28;20519;-85
2021/08/11 00:26:20;;;;;;;1.90;1.80;;;;;;;;;;5045216;28;20205;-85
2021/08/11 00:28:46;;;;;;;2.50;1.42;;;;;;;;;;5046379;28;20258;-84
2021/08/11 00:31:12;;;;;;;3.00;1.65;;;;;;;;;;5041799;28;20248;-85
2021/08/11 00:33:38;;;;;;;1.73;1.63;;;;;;;;;;5046646;28;20190;-85
2021/08/11 00:36:04;;;;;;;2.70;1.40;;;;;;;;;;5045071;28;20681;-85
2021/08/11 00:38:30;;;;;;;2.35;1.90;;;;;;;;;;5030226;28;20911;-85
2021/08/11 00:40:56;;;;;;;3.80;1.63;;;;;;;;;;5029142;28;20178;-85
2021/08/11 00:43:22;;;;;;;1.67;1.57;;;;;;;;;;5040961;28;20416;-85
2021/08/11 00:45:48;;;;;;;2.50;1.67;;;;;;;;;;5037316;28;20421;-85
2021/08/11 00:48:14;;;;;;;3.50;1.93;;;;;;;;;;5034527;28;20411;-85
2021/08/11 00:50:41;;;;;;;1.90;1.70;;;;;;;;;;5046148;28;20433;-85
2021/08/11 00:53:08;;;;;;;2.20;2.00;;;;;;;;;;5027992;28;20197;-85
2021/08/11 00:55:36;;;;;;;1.92;1.80;;;;;;;;;;5030061;28;20325;-85
2021/08/11 00:58:03;;;;;;;2.10;1.45;;;;;;;;;;5042045;28;20212;-85
2021/08/11 01:00:29;;;;;;;2.00;1.80;;;;;;;;;;5046953;28;20181;-85
2021/08/11 01:02:56;;;;;;;1.58;1.48;;;;;;;;;;5044953;28;20255;-85
2021/08/11 01:05:22;;;;;;;1.70;1.60;;;;;;;;;;5044720;28;20190;-84
2021/08/11 01:07:51;;;;;;;4.60;1.63;;;;;;;;;;5044281;28;20551;-85
2021/08/11 01:10:17;;;;;;;1.98;1.88;;;;;;;;;;5043965;28;20420;-85
2021/08/11 01:12:44;;;;;;;2.45;2.25;;;;;;;;;;5044124;28;20186;-85
2021/08/11 01:15:10;;;;;;;2.03;1.83;;;;;;;;;;5044260;28;20202;-85
2021/08/11 01:17:36;;;;;;;2.50;2.00;;;;;;;;;;5045469;28;20185;-85
2021/08/11 01:20:04;;;;;;;2.92;1.50;;;;;;;;;;5043594;28;20281;-86
2021/08/11 01:22:32;;;;;;;2.08;1.98;;;;;;;;;;5032546;28;20179;-85
2021/08/11 01:25:04;;;;;;;2.00;1.90;;;;;;;;;;5040678;28;20186;-85
2021/08/11 01:27:34;;;;;;;1.77;1.67;;;;;;;;;;5043490;28;20196;-85
2021/08/11 01:30:10;;;;;;;1.83;1.73;;;;;;;;;;5043720;28;20182;-85
2021/08/11 01:32:35;;;;;;;1.75;1.58;;;;;;;;;;5030165;28;20186;-85
2021/08/11 01:35:02;;;;;;;2.23;2.03;;;;;;;;;;5042722;28;20289;-85
2021/08/11 01:37:29;;;;;;;2.10;1.70;;;;;;;;;;5043294;28;20425;-85
2021/08/11 01:40:00;;;;;;;2.28;1.80;;;;;;;;;;5044939;28;20192;-85
2021/08/11 01:42:31;;;;;;;2.53;2.30;;;;;;;;;;5039873;28;20183;-85
2021/08/11 01:45:06;;;;;;;1.70;1.60;;;;;;;;;;5033445;28;20208;-85
2021/08/11 01:47:39;;;;;;;1.73;1.63;;;;;;;;;;5030830;28;20212;-85
2021/08/11 01:50:06;;;;;;;1.95;1.80;;;;;;;;;;5042882;28;20207;-85
2021/08/11 01:52:34;;;;;;;2.28;1.33;;;;;;;;;;5038574;28;20192;-85
2021/08/11 01:55:01;;;;;;;2.30;1.80;;;;;;;;;;5036077;28;20234;-85
2021/08/11 01:57:27;;;;;;;2.00;1.75;;;;;;;;;;5036877;28;20181;-84
2021/08/11 01:59:53;;;;;;;1.92;1.83;;;;;;;;;;5044420;28;20660;-84
2021/08/11 02:02:21;;;;;;;1.63;1.50;;;;;;;;;;5028727;28;20240;-85
2021/08/11 02:04:48;;;;;;;3.70;1.52;;;;;;;;;;5028138;28;20201;-85
2021/08/11 02:07:15;;;;;;;3.20;2.05;;;;;;;;;;5041806;28;20224;-85
2021/08/11 02:09:41;;;;;;;1.77;1.67;;;;;;;;;;5043095;28;20190;-85
2021/08/11 02:12:10;;;;;;;3.20;1.92;;;;;;;;;;5043620;28;20193;-85
2021/08/11 02:14:39;;;;;;;1.95;1.80;;;;;;;;;;5045642;28;20205;-85
2021/08/11 02:17:05;;;;;;;2.40;1.83;;;;;;;;;;5026542;28;20170;-85
2021/08/11 02:19:31;;;;;;;2.50;2.30;;;;;;;;;;5038272;28;20228;-86
2021/08/11 02:21:57;;;;;;;1.70;1.60;;;;;;;;;;5042131;28;20198;-85
2021/08/11 02:24:23;;;;;;;1.70;1.60;;;;;;;;;;5040651;28;20186;-85
2021/08/11 02:26:55;;;;;;;2.63;1.85;;;;;;;;;;5030551;28;20451;-85
2021/08/11 02:29:33;;;;;;;2.30;1.73;;;;;;;;;;5026873;28;20248;-85
2021/08/11 02:32:08;;;;;;;2.30;1.63;;;;;;;;;;5036400;28;20174;-85
2021/08/11 02:34:40;;;;;;;1.92;1.70;;;;;;;;;;5061842;28;20216;-85
2021/08/11 02:37:10;;;;;;;1.60;1.50;;;;;;;;;;5042699;28;20202;-85
2021/08/11 02:39:46;;;;;;;2.25;1.60;;;;;;;;;;5042604;28;20216;-85
2021/08/11 02:42:15;;;;;;;3.83;1.90;;;;;;;;;;5043927;28;20276;-85
2021/08/11 02:44:44;;;;;;;3.15;1.80;;;;;;;;;;5045432;28;20200;-85
2021/08/11 02:47:10;;;;;;;2.03;1.85;;;;;;;;;;5032730;28;20185;-85
2021/08/11 02:49:37;;;;;;;1.60;1.50;;;;;;;;;;5046466;28;20189;-85
2021/08/11 02:52:04;;;;;;;1.65;1.50;;;;;;;;;;5045601;28;20785;-85
2021/08/11 02:54:30;;;;;;;1.83;1.70;;;;;;;;;;5046767;28;20282;-85
2021/08/11 02:56:56;;;;;;;2.75;2.00;;;;;;;;;;5047257;28;20240;-85
2021/08/11 02:59:24;;;;;;;3.00;1.67;;;;;;;;;;5029699;28;20177;-85
2021/08/11 03:01:51;;;;;;;2.00;1.80;;;;;;;;;;5031005;28;20166;-85
2021/08/11 03:04:17;;;;;;;2.00;1.80;;;;;;;;;;5049236;28;20244;-86
2021/08/11 03:06:43;;;;;;;2.20;1.70;;;;;;;;;;5047950;28;20196;-85
2021/08/11 03:09:10;;;;;;;2.13;1.97;;;;;;;;;;5046018;28;20182;-85
2021/08/11 03:11:36;;;;;;;3.58;1.67;;;;;;;;;;5047866;28;20436;-85
2021/08/11 03:14:04;;;;;;;2.05;1.70;;;;;;;;;;5030590;28;20182;-86
2021/08/11 03:16:31;;;;;;;2.67;1.52;;;;;;;;;;5049216;28;20194;-85
2021/08/11 03:18:57;;;;;;;1.60;1.50;;;;;;;;;;5047226;28;20256;-86
2021/08/11 03:21:23;;;;;;;1.90;1.33;;;;;;;;;;5046080;28;20185;-85
2021/08/11 03:23:49;;;;;;;3.55;1.77;;;;;;;;;;5047760;28;20218;-85
2021/08/11 03:26:15;;;;;;;1.85;1.67;;;;;;;;;;5030238;28;20198;-84
2021/08/11 03:28:41;;;;;;;1.90;1.80;;;;;;;;;;5030561;28;20174;-85
2021/08/11 03:31:07;;;;;;;2.58;2.00;;;;;;;;;;5047105;28;20447;-84
2021/08/11 03:33:33;;;;;;;1.90;1.80;;;;;;;;;;5045819;28;20186;-85
2021/08/11 03:35:59;;;;;;;1.53;1.43;;;;;;;;;;5046769;28;20460;-85
2021/08/11 03:38:25;;;;;;;2.37;1.50;;;;;;;;;;5046149;28;20436;-85
2021/08/11 03:40:51;;;;;;;1.50;1.40;;;;;;;;;;5057515;28;20424;-85
2021/08/11 03:43:17;;;;;;;2.50;1.70;;;;;;;;;;5047654;28;20432;-85
2021/08/11 03:45:43;;;;;;;2.65;1.48;;;;;;;;;;5046056;28;20432;-85
2021/08/11 03:48:09;;;;;;;3.03;1.27;;;;;;;;;;5048081;28;20186;-85
2021/08/11 03:50:35;;;;;;;1.85;1.60;;;;;;;;;;5048349;28;20181;-85
2021/08/11 03:53:02;;;;;;;1.63;1.52;;;;;;;;;;5045114;28;20241;-85
2021/08/11 03:55:32;;;;;;;1.58;1.40;;;;;;;;;;5034006;28;20202;-85
2021/08/11 03:57:58;;;;;;;1.55;1.40;;;;;;;;;;5035536;28;20178;-84
2021/08/11 04:00:24;;;;;;;1.63;1.50;;;;;;;;;;5040170;28;20185;-85
2021/08/11 04:02:50;;;;;;;1.40;1.30;;;;;;;;;;5047003;28;20260;-85
2021/08/11 04:05:16;;;;;;;1.43;1.30;;;;;;;;;;5029298;28;20209;-85
2021/08/11 04:07:42;;;;;;;2.03;1.40;;;;;;;;;;5046260;28;20527;-85
2021/08/11 04:10:09;;;;;;;3.13;1.60;;;;;;;;;;5047740;28;20485;-85
2021/08/11 04:12:36;;;;;;;2.85;1.75;;;;;;;;;;5046968;28;20823;-85
2021/08/11 04:15:02;;;;;;;2.35;1.60;;;;;;;;;;5045969;28;20213;-85
2021/08/11 04:17:28;;;;;;;2.35;1.30;;;;;;;;;;5030250;28;20187;-85
2021/08/11 04:19:54;;;;;;;2.10;1.63;;;;;;;;;;5028504;28;20222;-85
2021/08/11 04:22:20;;;;;;;4.20;1.55;;;;;;;;;;5046775;28;20178;-85
2021/08/11 04:24:46;;;;;;;2.03;1.40;;;;;;;;;;5037935;28;20197;-85
2021/08/11 04:27:12;;;;;;;1.53;1.40;;;;;;;;;;5033774;28;20451;-85
2021/08/11 04:29:38;;;;;;;2.00;1.40;;;;;;;;;;5031366;28;20444;-85
2021/08/11 04:32:04;;;;;;;1.85;1.35;;;;;;;;;;5027996;28;20174;-85
2021/08/11 04:34:30;;;;;;;1.55;1.27;;;;;;;;;;5046087;28;20198;-85
2021/08/11 04:36:56;;;;;;;1.88;1.55;;;;;;;;;;5044609;28;20190;-85
2021/08/11 04:39:23;;;;;;;1.98;1.80;;;;;;;;;;5044003;28;20178;-85
2021/08/11 04:41:49;;;;;;;1.30;1.20;;;;;;;;;;5040509;28;20198;-85
2021/08/11 04:44:15;;;;;;;1.60;1.50;;;;;;;;;;5043665;28;20419;-85
2021/08/11 04:46:41;;;;;;;4.22;1.95;;;;;;;;;;5047477;28;20383;-85
2021/08/11 04:49:07;;;;;;;1.67;1.25;;;;;;;;;;5045825;28;20205;-85
2021/08/11 04:51:33;;;;;;;2.40;1.90;;;;;;;;;;5046870;28;20196;-84
2021/08/11 04:53:59;;;;;;;1.73;1.60;;;;;;;;;;5044380;28;20192;-85
2021/08/11 04:56:26;;;;;;;2.03;1.58;;;;;;;;;;5045025;28;20460;-85
2021/08/11 04:58:52;;;;;;;1.88;1.65;;;;;;;;;;5055573;28;20178;-85
2021/08/11 05:01:18;;;;;;;1.88;1.55;;;;;;;;;;5045705;28;20189;-85
2021/08/11 05:03:44;;;;;;;2.20;1.60;;;;;;;;;;5040603;28;20202;-85
2021/08/11 05:06:10;;;;;;;1.57;1.47;;;;;;;;;;5033989;28;20661;-85
2021/08/11 05:08:39;;;;;;;1.67;1.25;;;;;;;;;;5040532;28;20477;-84
2021/08/11 05:11:06;;;;;;;1.70;1.45;;;;;;;;;;5027635;28;20179;-85
2021/08/11 05:13:32;;;;;;;2.35;1.58;;;;;;;;;;5032609;28;20545;-85
2021/08/11 05:15:58;;;;;;;1.65;1.42;;;;;;;;;;5040554;28;20224;-85
2021/08/11 05:18:25;;;;;;;1.58;1.48;;;;;;;;;;5041790;28;20214;-84
2021/08/11 05:20:51;;;;;;;2.05;1.85;;;;;;;;;;5035403;28;20201;-85
2021/08/11 05:23:17;;;;;;;3.30;1.45;;;;;;;;;;5026597;28;20188;-85
2021/08/11 05:25:43;;;;;;;3.30;1.63;;;;;;;;;;5030381;28;20179;-85
2021/08/11 05:28:10;;;;;;;2.30;1.70;;;;;;;;;;5034840;28;20186;-85
2021/08/11 05:30:45;;;;;;;1.40;1.20;;;;;;;;;;5039108;28;20189;-85
2021/08/11 05:33:11;;;;;;;3.45;2.53;;;;;;;;;;5043982;28;20795;-85
2021/08/11 05:35:37;;;;;;;1.90;1.80;;;;;;;;;;5041401;28;20214;-84
2021/08/11 05:38:06;;;;;;;2.47;1.10;;;;;;;;;;5025922;28;20335;-85
2021/08/11 05:40:33;;;;;;;1.50;1.40;;;;;;;;;;5031571;28;20177;-85
2021/08/11 05:42:59;;;;;;;1.75;1.60;;;;;;;;;;5037794;28;20181;-84
2021/08/11 05:45:25;;;;;;;2.58;1.38;;;;;;;;;;5042930;28;20711;-84
2021/08/11 05:47:51;;;;;;;1.73;1.40;;;;;;;;;;5045128;28;20209;-84
2021/08/11 05:50:17;;;;;;;1.97;1.60;;;;;;;;;;5044662;28;20657;-85
2021/08/11 05:52:43;;;;;;;3.05;1.30;;;;;;;;;;5043311;28;20447;-85
2021/08/11 05:55:09;;;;;;;3.10;1.20;;;;;;;;;;5045933;28;20209;-85
2021/08/11 05:57:41;;;;;;;3.17;1.48;;;;;;;;;;5038649;28;20420;-85
2021/08/11 06:00:09;;;;;;;4.63;1.40;;;;;;;;;;5032103;28;20193;-85
2021/08/11 06:02:35;;;;;;;1.63;1.17;;;;;;;;;;5030499;28;20173;-84
2021/08/11 06:05:01;;;;;;;1.60;1.40;;;;;;;;;;5042102;28;20205;-85
2021/08/11 06:07:27;;;;;;;2.00;1.43;;;;;;;;;;5033546;28;20406;-85
2021/08/11 06:09:53;;;;;;;1.63;1.37;;;;;;;;;;5044270;28;20517;-85
2021/08/11 06:12:19;;;;;;;1.45;1.35;;;;;;;;;;5043814;28;20533;-85
2021/08/11 06:14:45;;;;;;;2.47;1.37;;;;;;;;;;5043990;28;20244;-84
2021/08/11 06:17:11;;;;;;;1.30;1.20;;;;;;;;;;5042496;28;20395;-84
2021/08/11 06:19:37;;;;;;;1.30;1.20;;;;;;;;;;5043860;28;20446;-85
2021/08/11 06:22:03;;;;;;;3.00;1.42;;;;;;;;;;5033827;28;20186;-84
2021/08/11 06:24:29;;;;;;;1.70;1.38;;;;;;;;;;5032862;28;20194;-85
2021/08/11 06:26:55;;;;;;;1.80;1.57;;;;;;;;;;5033038;28;20281;-85
2021/08/11 06:29:21;;;;;;;2.00;1.20;;;;;;;;;;5044689;28;20462;-85
2021/08/11 06:31:47;;;;;;;2.00;1.43;;;;;;;;;;5044562;28;20177;-84
2021/08/11 06:34:13;;;;;;;1.80;1.50;;;;;;;;;;5042892;28;20439;-85
2021/08/11 06:36:39;;;;;;;1.70;1.60;;;;;;;;;;5036910;28;20423;-85
2021/08/11 06:39:05;;;;;;;1.67;1.50;;;;;;;;;;5034710;28;20196;-84
2021/08/11 06:41:31;;;;;;;1.92;1.83;;;;;;;;;;5044106;28;20475;-85
2021/08/11 06:43:57;;;;;;;2.80;1.97;;;;;;;;;;5027508;28;20178;-85
2021/08/11 06:46:23;;;;;;;1.60;1.50;;;;;;;;;;5032140;28;20763;-84
2021/08/11 06:48:49;;;;;;;2.40;2.20;;;;;;;;;;5040888;28;20422;-84
2021/08/11 06:51:15;;;;;;;3.83;2.50;;;;;;;;;;5042437;28;20599;-85
2021/08/11 06:53:41;;;;;;;2.58;2.22;;;;;;;;;;5045705;28;20493;-85
2021/08/11 06:56:07;;;;;;;5.37;2.53;;;;;;;;;;5042135;28;20573;-85
2021/08/11 06:58:35;;;;;;;2.78;2.22;;;;;;;;;;5044532;28;20428;-85
2021/08/11 07:01:01;;;;;;;2.00;1.80;;;;;;;;;;5044563;28;20178;-85
2021/08/11 07:03:27;;;;;;;2.40;1.80;;;;;;;;;;5044363;28;20185;-85
2021/08/11 07:05:53;;;;;;;2.28;2.08;;;;;;;;;;5041619;28;20458;-85
2021/08/11 07:08:20;;;;;;;3.20;1.95;;;;;;;;;;5027002;28;20216;-84
2021/08/11 07:10:46;;;;;;;3.08;2.17;;;;;;;;;;5042543;28;20249;-83
2021/08/11 07:13:12;;;;;;;3.53;2.03;;;;;;;;;;5042678;28;20186;-84
2021/08/11 07:15:38;;;;;;;2.75;2.20;;;;;;;;;;5045797;28;20198;-85
2021/08/11 07:18:04;;;;;;;1.95;1.75;;;;;;;;;;5041580;28;20267;-85
2021/08/11 07:20:31;;;;;;;2.03;1.83;;;;;;;;;;5026437;28;20190;-84
2021/08/11 07:22:58;;;;;;;1.70;1.60;;;;;;;;;;5041343;28;20179;-84
2021/08/11 07:25:25;;;;;;;2.25;2.08;;;;;;;;;;5031228;28;20173;-84
2021/08/11 07:27:51;;;;;;;2.13;1.90;;;;;;;;;;5032511;28;20190;-84
2021/08/11 07:30:17;;;;;;;3.08;2.25;;;;;;;;;;5035832;28;20344;-84
2021/08/11 07:32:43;;;;;;;2.65;1.80;;;;;;;;;;5049123;28;20213;-85
2021/08/11 07:35:10;;;;;;;3.13;1.97;;;;;;;;;;5045742;28;20226;-84
2021/08/11 07:37:46;;;;;;;2.65;2.13;;;;;;;;;;5033136;28;20430;-84
2021/08/11 07:40:13;;;;;;;3.05;1.50;;;;;;;;;;5043970;28;20208;-84
2021/08/11 07:42:39;;;;;;;2.10;1.77;;;;;;;;;;5048248;28;20176;-85
2021/08/11 07:45:05;;;;;;;2.13;1.75;;;;;;;;;;5047128;28;21071;-84
2021/08/11 07:47:31;;;;;;;3.00;2.17;;;;;;;;;;5031065;28;20235;-84
2021/08/11 07:49:57;;;;;;;3.03;2.03;;;;;;;;;;5028155;28;20723;-85
2021/08/11 07:52:23;;;;;;;1.83;1.70;;;;;;;;;;5063980;28;20426;-84
2021/08/11 07:54:49;;;;;;;4.00;2.03;;;;;;;;;;5038423;28;20536;-84
2021/08/11 07:57:15;;;;;;;2.57;1.87;;;;;;;;;;5034789;28;20440;-84
2021/08/11 07:59:41;;;;;;;2.10;1.80;;;;;;;;;;5031381;28;20434;-84
2021/08/11 08:02:11;;;;;;;1.85;1.73;;;;;;;;;;5042244;28;20430;-84
2021/08/11 08:04:37;;;;;;;2.58;2.35;;;;;;;;;;5030210;28;20193;-84
2021/08/11 08:07:03;;;;;;;3.38;1.85;;;;;;;;;;5043059;28;20189;-85
2021/08/11 08:09:29;;;;;;;2.75;1.80;;;;;;;;;;5044722;28;20235;-84
2021/08/11 08:11:55;;;;;;;2.30;1.75;;;;;;;;;;5049141;28;20184;-84
2021/08/11 08:14:21;;;;;;;2.73;2.27;;;;;;;;;;5044930;28;20719;-84
2021/08/11 08:16:47;;;;;;;2.80;1.93;;;;;;;;;;5029594;28;20923;-84
2021/08/11 08:19:13;;;;;;;2.60;2.40;;;;;;;;;;5034653;28;20484;-85
2021/08/11 08:21:39;;;;;;;2.57;2.17;;;;;;;;;;5038636;28;20184;-85
2021/08/11 08:24:05;;;;;;;3.00;1.98;;;;;;;;;;5045277;28;20507;-85
2021/08/11 08:26:31;;;;;;;2.03;1.83;;;;;;;;;;5031037;28;20220;-85
2021/08/11 08:28:57;;;;;;;2.80;2.60;;;;;;;;;;5027746;28;20420;-84
2021/08/11 08:31:23;;;;;;;2.03;1.90;;;;;;;;;;5041875;28;20427;-84
2021/08/11 08:33:49;;;;;;;3.67;2.50;;;;;;;;;;5046842;28;20441;-84
2021/08/11 08:36:15;;;;;;;2.60;1.87;;;;;;;;;;5043856;28;20917;-84
2021/08/11 08:38:42;;;;;;;2.60;2.40;;;;;;;;;;5027144;28;20430;-84
2021/08/11 08:41:10;;;;;;;2.40;2.00;;;;;;;;;;5041250;28;20448;-84
2021/08/11 08:43:36;;;;;;;2.93;2.30;;;;;;;;;;5058308;28;20413;-84
2021/08/11 08:46:02;;;;;;;2.73;2.07;;;;;;;;;;5038670;28;20423;-84
2021/08/11 08:48:28;;;;;;;2.97;2.30;;;;;;;;;;5039261;28;20479;-85
2021/08/11 08:50:55;;;;;;;2.60;2.10;;;;;;;;;;5043874;28;20501;-84
2021/08/11 08:53:24;;;;;;;3.37;2.10;;;;;;;;;;5029956;28;20409;-85
2021/08/11 08:55:52;;;;;;;2.80;2.50;;;;;;;;;;5044090;28;20464;-84
2021/08/11 08:58:18;;;;;;;4.97;2.00;;;;;;;;;;5046813;28;20436;-84
2021/08/11 09:00:45;;;;;;;2.60;2.40;;;;;;;;;;5044350;28;20418;-84
2021/08/11 09:03:11;;;;;;;3.93;2.40;;;;;;;;;;5044063;28;20447;-85
2021/08/11 09:05:37;;;;;;;3.53;2.30;;;;;;;;;;5028146;28;20441;-84
2021/08/11 09:08:03;;;;;;;2.23;2.03;;;;;;;;;;5028335;28;20389;-84
2021/08/11 09:10:30;;;;;;;2.37;2.17;;;;;;;;;;5046180;28;20421;-84
2021/08/11 09:13:09;;;;;;;2.83;2.63;;;;;;;;;;5047552;28;20411;-83
2021/08/11 09:15:37;;;;;;;2.80;2.60;;;;;;;;;;5046606;28;20531;-85
2021/08/11 09:18:32;;;;;;;3.50;2.10;;;;;;;;;;5044926;28;20418;-84
2021/08/11 09:21:09;;;;;;;1.97;1.87;;;;;;;;;;5023730;28;20469;-84
2021/08/11 09:23:45;;;;;;;4.10;2.10;;;;;;;;;;5032137;28;20430;-84
2021/08/11 09:26:12;;;;;;;4.30;2.53;;;;;;;;;;5044227;28;20519;-84
2021/08/11 09:28:39;;;;;;;2.90;2.43;;;;;;;;;;5029114;28;20424;-84
2021/08/11 09:31:24;;;;;;;3.60;2.60;;;;;;;;;;5033344;28;20412;-83
2021/08/11 09:33:51;;;;;;;4.77;4.13;;;;;;;;;;5035450;28;20448;-84
2021/08/11 09:36:17;;;;;;;3.47;2.23;;;;;;;;;;5035816;28;20792;-83
2021/08/11 09:39:00;;;;;;;3.13;2.67;;;;;;;;;;5046281;28;20402;-84
2021/08/11 09:41:26;;;;;;;2.20;2.00;;;;;;;;;;5030351;28;20411;-85
2021/08/11 09:44:12;;;;;;;3.20;2.17;;;;;;;;;;5039743;28;20387;-85
2021/08/11 09:46:39;;;;;;;2.50;2.30;;;;;;;;;;5057775;28;20432;-85
2021/08/11 09:49:19;;;;;;;3.13;2.00;;;;;;;;;;5034872;28;20437;-84
2021/08/11 09:51:58;;;;;;;3.97;2.97;;;;;;;;;;5032894;28;20412;-83
2021/08/11 09:54:25;;;;;;;2.77;2.27;;;;;;;;;;5037360;28;20418;-84
2021/08/11 09:56:51;;;;;;;3.17;2.33;;;;;;;;;;5044430;28;20414;-84
2021/08/11 09:59:17;;;;;;;2.33;2.13;;;;;;;;;;5027365;28;20440;-84
2021/08/11 10:01:43;;;;;;;3.40;2.00;;;;;;;;;;5039768;28;20395;-83
2021/08/11 10:04:11;;;;;;;3.27;2.27;;;;;;;;;;5035460;28;20415;-84
2021/08/11 10:06:39;;;;;;;4.77;2.60;;;;;;;;;;5037413;28;20441;-83
2021/08/11 10:09:15;;;;;;;2.40;2.20;;;;;;;;;;5043188;28;20418;-84
2021/08/11 10:12:01;;;;;;;2.70;2.50;;;;;;;;;;5045374;28;20905;-84
2021/08/11 10:14:31;;;;;;;3.30;2.63;;;;;;;;;;5027163;28;20430;-85
2021/08/11 10:17:01;;;;;;;2.80;2.60;;;;;;;;;;5026091;28;20436;-84
2021/08/11 10:19:31;;;;;;;3.80;2.93;;;;;;;;;;5060097;28;20514;-84
2021/08/11 10:22:08;;;;;;;3.30;2.30;;;;;;;;;;5035999;28;20420;-84
2021/08/11 10:24:35;;;;;;;4.93;3.20;;;;;;;;;;5032950;28;20434;-84
2021/08/11 10:27:05;;;;;;;2.97;2.77;;;;;;;;;;5033536;28;20776;-84
2021/08/11 10:29:32;;;;;;;2.70;2.50;;;;;;;;;;5025755;28;20443;-84
2021/08/11 10:32:00;;;;;;;2.30;2.00;;;;;;;;;;5026942;28;20416;-84
2021/08/11 10:34:29;;;;;;;3.20;2.77;;;;;;;;;;5032231;28;20414;-84
2021/08/11 10:36:56;;;;;;;2.80;2.30;;;;;;;;;;5032387;28;20533;-84
2021/08/11 10:39:22;;;;;;;3.43;2.10;;;;;;;;;;5030543;28;20440;-84
2021/08/11 10:41:48;;;;;;;5.70;2.60;;;;;;;;;;5044808;28;20442;-83
2021/08/11 10:44:19;;;;;;;3.20;2.90;;;;;;;;;;5043740;28;20426;-84
2021/08/11 10:46:55;;;;;;;3.13;2.70;;;;;;;;;;5044452;28;20489;-84
2021/08/11 10:49:22;;;;;;;3.83;2.97;;;;;;;;;;5046805;28;20414;-84
2021/08/11 10:51:49;;;;;;;2.33;2.13;;;;;;;;;;5044839;28;20437;-84
2021/08/11 10:54:15;;;;;;;6.00;3.60;;;;;;;;;;5041297;28;20506;-83
2021/08/11 10:56:55;;;;;;;3.57;3.10;;;;;;;;;;5030274;28;20540;-84
2021/08/11 10:59:25;;;;;;;3.60;2.93;;;;;;;;;;5029028;28;20521;-84
2021/08/11 11:01:51;;;;;;;2.87;2.60;;;;;;;;;;5043359;28;20422;-84
2021/08/11 11:04:37;;;;;;;3.87;3.20;;;;;;;;;;5045261;28;20408;-84
2021/08/11 11:07:10;;;;;;;3.00;2.20;;;;;;;;;;5048731;28;20449;-84
2021/08/11 11:09:36;;;;;;;4.30;2.87;;;;;;;;;;5042139;28;20801;-84
2021/08/11 11:12:18;;;;;;;3.07;2.60;;;;;;;;;;5035274;28;20448;-83
2021/08/11 11:14:45;;;;;;;3.50;2.43;;;;;;;;;;5035516;28;20460;-84
2021/08/11 11:17:11;;;;;;;3.73;2.70;;;;;;;;;;5030934;28;20967;-84
2021/08/11 11:19:56;;;;;;;3.50;2.60;;;;;;;;;;5033381;28;20498;-84
2021/08/11 11:22:33;;;;;;;3.40;2.50;;;;;;;;;;5036378;28;20448;-84
2021/08/11 11:24:59;;;;;;;2.87;2.67;;;;;;;;;;5045484;28;20858;-84
2021/08/11 11:27:44;;;;;;;2.77;2.50;;;;;;;;;;5043979;28;20468;-83
2021/08/11 11:30:12;;;;;;;2.20;2.00;;;;;;;;;;5038777;28;20448;-84
2021/08/11 11:32:38;;;;;;;3.20;2.40;;;;;;;;;;5049000;28;20427;-84
2021/08/11 11:35:17;;;;;;;4.80;2.77;;;;;;;;;;5029045;28;20464;-84
2021/08/11 11:37:43;;;;;;;3.47;2.70;;;;;;;;;;5030858;28;20916;-84
2021/08/11 11:40:11;;;;;;;3.03;2.33;;;;;;;;;;5046335;28;20503;-84
2021/08/11 11:42:37;;;;;;;3.73;2.27;;;;;;;;;;5048959;28;20537;-83
2021/08/11 11:45:07;;;;;;;3.20;2.90;;;;;;;;;;5045930;28;20547;-83
2021/08/11 11:47:45;;;;;;;2.90;2.60;;;;;;;;;;5032235;28;20416;-84
2021/08/11 11:50:25;;;;;;;2.93;2.53;;;;;;;;;;5030300;28;20402;-85
2021/08/11 11:52:54;;;;;;;3.07;2.87;;;;;;;;;;5045756;28;20444;-82
2021/08/11 11:55:28;;;;;;;3.03;2.70;;;;;;;;;;5046951;28;20473;-81
2021/08/11 11:57:54;;;;;;;3.37;2.73;;;;;;;;;;5048267;28;20946;-82
2021/08/11 12:00:20;;;;;;;3.57;3.27;;;;;;;;;;5046797;28;20436;-81
2021/08/11 12:02:50;;;;;;;3.00;2.70;;;;;;;;;;5044264;28;20411;-81
2021/08/11 12:05:16;;;;;;;2.37;2.17;;;;;;;;;;5029872;28;20443;-81
2021/08/11 12:07:42;;;;;;;3.83;2.60;;;;;;;;;;5031558;28;20641;-81
2021/08/11 12:10:09;;;;;;;2.90;2.70;;;;;;;;;;5036067;28;20481;-81
2021/08/11 12:12:35;;;;;;;2.90;2.57;;;;;;;;;;5036949;28;20442;-82
2021/08/11 12:15:21;;;;;;;2.30;2.10;;;;;;;;;;5035239;28;20585;-82
2021/08/11 12:17:47;;;;;;;2.80;2.60;;;;;;;;;;5047433;28;20484;-82
2021/08/11 12:20:29;;;;;;;2.90;2.40;;;;;;;;;;5045825;28;20424;-82
2021/08/11 12:22:56;;;;;;;2.50;2.27;;;;;;;;;;5041900;28;20445;-81
2021/08/11 12:25:23;;;;;;;2.60;2.40;;;;;;;;;;5044824;28;20421;-82
2021/08/11 12:28:08;;;;;;;2.60;2.40;;;;;;;;;;5047446;28;20927;-82
2021/08/11 12:30:35;;;;;;;2.70;2.50;;;;;;;;;;5041481;28;20869;-82
2021/08/11 12:33:02;;;;;;;2.70;2.50;;;;;;;;;;5036390;28;20446;-81
2021/08/11 12:35:28;;;;;;;2.60;2.40;;;;;;;;;;5047644;28;20460;-82
2021/08/11 12:37:54;;;;;;;2.57;2.37;;;;;;;;;;5045337;28;20430;-82
2021/08/11 12:40:28;;;;;;;2.60;2.40;;;;;;;;;;5046826;28;20439;-81
2021/08/11 12:42:55;;;;;;;3.83;2.27;;;;;;;;;;5046892;28;20445;-82
2021/08/11 12:45:21;;;;;;;2.43;2.00;;;;;;;;;;5043183;28;20454;-81
2021/08/11 12:47:47;;;;;;;2.30;2.10;;;;;;;;;;5034600;28;20801;-81
2021/08/11 12:50:20;;;;;;;2.87;2.30;;;;;;;;;;5045905;28;20900;-81
2021/08/11 12:52:56;;;;;;;2.90;2.67;;;;;;;;;;5039456;28;20417;-82
2021/08/11 12:55:32;;;;;;;2.67;2.30;;;;;;;;;;5048062;28;20959;-82
2021/08/11 12:57:58;;;;;;;2.73;2.50;;;;;;;;;;5046958;28;20487;-81
2021/08/11 13:00:54;;;;;;;2.70;2.03;;;;;;;;;;5044118;28;20464;-82
2021/08/11 13:03:20;;;;;;;2.20;2.00;;;;;;;;;;5041374;28;20444;-81
2021/08/11 13:05:52;;;;;;;2.57;2.37;;;;;;;;;;5033571;28;20499;-82
2021/08/11 13:08:18;;;;;;;1.87;1.77;;;;;;;;;;5029653;28;20435;-82
2021/08/11 13:10:55;;;;;;;2.47;2.27;;;;;;;;;;5046567;28;20413;-83
2021/08/11 13:13:22;;;;;;;2.67;2.47;;;;;;;;;;5044089;28;20483;-82
2021/08/11 13:15:48;;;;;;;2.40;2.20;;;;;;;;;;5037626;28;20480;-83
2021/08/11 13:18:23;;;;;;;2.00;1.90;;;;;;;;;;5033653;28;20475;-82
2021/08/11 13:20:50;;;;;;;3.10;2.80;;;;;;;;;;5032932;28;20435;-82
2021/08/11 13:23:16;;;;;;;3.43;3.13;;;;;;;;;;5043814;28;20420;-82
2021/08/11 13:25:44;;;;;;;2.03;1.83;;;;;;;;;;5046030;28;20417;-82
2021/08/11 13:28:11;;;;;;;1.97;1.87;;;;;;;;;;5038868;28;20566;-82
2021/08/11 13:30:37;;;;;;;2.00;1.90;;;;;;;;;;5041873;28;21027;-82
2021/08/11 13:33:04;;;;;;;2.50;2.30;;;;;;;;;;5032772;28;20436;-82
2021/08/11 13:35:31;;;;;;;2.17;1.97;;;;;;;;;;5046067;28;20500;-83
2021/08/11 13:37:57;;;;;;;2.30;2.10;;;;;;;;;;5042048;28;20435;-83
2021/08/11 13:40:24;;;;;;;2.30;2.10;;;;;;;;;;5033454;28;20405;-83
2021/08/11 13:42:50;;;;;;;1.97;1.87;;;;;;;;;;5031731;28;20452;-83
2021/08/11 13:45:16;;;;;;;2.77;2.57;;;;;;;;;;5036699;28;20534;-83
2021/08/11 13:47:43;;;;;;;2.10;1.97;;;;;;;;;;5046144;28;20436;-83
2021/08/11 13:50:10;;;;;;;2.47;2.27;;;;;;;;;;5044571;28;20420;-83
2021/08/11 13:52:36;;;;;;;1.97;1.87;;;;;;;;;;5032209;28;20425;-82
2021/08/11 13:55:03;;;;;;;2.60;2.40;;;;;;;;;;5042866;28;20527;-83
2021/08/11 13:57:29;;;;;;;3.00;2.27;;;;;;;;;;5040014;28;20437;-83
2021/08/11 13:59:55;;;;;;;2.17;1.97;;;;;;;;;;5034556;28;20443;-83
2021/08/11 14:02:21;;;;;;;2.43;2.13;;;;;;;;;;5043624;28;20443;-83
2021/08/11 14:04:49;;;;;;;2.17;1.97;;;;;;;;;;5042719;28;20432;-83
2021/08/11 14:07:15;;;;;;;2.50;2.30;;;;;;;;;;5033059;28;20515;-82
2021/08/11 14:09:41;;;;;;;2.20;2.00;;;;;;;;;;5033770;28;20560;-83
2021/08/11 14:12:08;;;;;;;2.00;1.73;;;;;;;;;;5035051;28;20440;-83
2021/08/11 14:14:36;;;;;;;2.33;2.17;;;;;;;;;;5045395;28;20429;-83
2021/08/11 14:17:02;;;;;;;2.30;2.10;;;;;;;;;;5041810;28;20426;-82
2021/08/11 14:19:28;;;;;;;2.23;2.13;;;;;;;;;;5044157;28;20471;-82
2021/08/11 14:21:54;;;;;;;1.80;1.70;;;;;;;;;;5045608;28;20968;-83
2021/08/11 14:24:20;;;;;;;2.30;2.10;;;;;;;;;;5045836;28;20439;-82
2021/08/11 14:26:46;;;;;;;3.10;2.50;;;;;;;;;;5045730;28;20443;-82
2021/08/11 14:29:13;;;;;;;2.33;2.13;;;;;;;;;;5043430;28;20498;-83
2021/08/11 14:31:40;;;;;;;2.30;2.10;;;;;;;;;;5039443;28;20459;-81
2021/08/11 14:34:05;;;;;;;2.80;2.60;;;;;;;;;;5041815;28;20442;-82
2021/08/11 14:36:31;;;;;;;2.47;2.27;;;;;;;;;;5043312;28;20463;-83
2021/08/11 14:38:58;;;;;;;2.70;2.47;;;;;;;;;;5043116;28;20918;-82
2021/08/11 14:41:24;;;;;;;2.67;2.20;;;;;;;;;;5048115;28;20515;-81
2021/08/11 14:43:50;;;;;;;2.30;2.10;;;;;;;;;;5046909;28;20452;-82
2021/08/11 14:46:16;;;;;;;2.33;2.13;;;;;;;;;;5038544;28;20536;-82
2021/08/11 14:48:42;;;;;;;2.30;2.10;;;;;;;;;;5042039;28;20485;-84